createdAt,value
2019-01-29T00:01:16.235Z,91.36
2019-01-29T00:03:42.983Z,91.76
2019-01-29T00:06:09.581Z,92.08
2019-01-29T00:08:36.131Z,91.99
2019-01-29T00:11:03.250Z,92.02
2019-01-29T00:13:29.862Z,91.75
2019-01-29T00:15:56.445Z,91.36
2019-01-29T00:18:22.951Z,90.27
2019-01-29T00:20:49.464Z,88.52
2019-01-29T00:23:15.940Z,87.90
2019-01-29T00:25:42.585Z,86.35
2019-01-29T00:28:09.318Z,86.23
2019-01-29T00:30:35.827Z,84.16
2019-01-29T00:33:02.432Z,83.48
2019-01-29T00:35:28.986Z,80.91
2019-01-29T00:37:55.624Z,80.64
2019-01-29T00:40:22.614Z,79.76
2019-01-29T00:42:49.205Z,79.88
2019-01-29T00:45:16.402Z,79.66
2019-01-29T00:47:42.980Z,79.84
2019-01-29T00:50:09.922Z,77.35
2019-01-29T00:52:41.800Z,75.68
2019-01-29T00:55:06.688Z,75.54
2019-01-29T00:57:33.285Z,74.94
2019-01-29T00:59:59.813Z,75.00
2019-01-29T01:02:26.284Z,76.32
2019-01-29T01:04:53.134Z,75.56
2019-01-29T01:07:19.726Z,75.88
2019-01-29T01:09:46.514Z,76.21
2019-01-29T01:12:13.061Z,76.61
2019-01-29T01:14:39.603Z,76.10
2019-01-29T01:17:06.168Z,76.14
2019-01-29T01:19:32.709Z,76.08
2019-01-29T01:21:59.716Z,75.52
2019-01-29T01:24:26.231Z,76.16
2019-01-29T01:26:52.849Z,75.62
2019-01-29T01:29:20.675Z,75.76
2019-01-29T01:31:47.486Z,76.27
2019-01-29T01:34:13.953Z,76.19
2019-01-29T01:36:40.443Z,76.18
2019-01-29T01:39:07.744Z,75.87
2019-01-29T01:41:34.388Z,76.32
2019-01-29T01:44:00.859Z,76.62
2019-01-29T01:46:27.730Z,76.45
2019-01-29T01:48:54.623Z,77.32
2019-01-29T01:51:21.142Z,77.93
2019-01-29T01:53:47.666Z,78.23
2019-01-29T01:56:14.122Z,78.75
2019-01-29T01:58:40.641Z,79.08
2019-01-29T02:01:07.195Z,79.18
2019-01-29T02:03:33.685Z,79.22
2019-01-29T02:06:00.778Z,79.20
2019-01-29T02:08:27.650Z,79.19
2019-01-29T02:10:54.443Z,79.35
2019-01-29T02:13:20.920Z,79.69
2019-01-29T02:15:47.466Z,79.88
2019-01-29T02:18:14.021Z,80.03
2019-01-29T02:20:40.527Z,79.83
2019-01-29T02:23:07.974Z,79.92
2019-01-29T02:25:35.001Z,79.92
2019-01-29T02:28:01.597Z,80.02
2019-01-29T02:30:28.153Z,79.66
2019-01-29T02:32:54.809Z,79.72
2019-01-29T02:35:21.385Z,79.57
2019-01-29T02:37:48.901Z,79.67
2019-01-29T02:40:18.447Z,79.70
2019-01-29T02:42:44.980Z,79.86
2019-01-29T02:45:12.677Z,79.94
2019-01-29T02:47:39.226Z,80.44
2019-01-29T02:50:06.882Z,80.66
2019-01-29T02:52:33.417Z,80.86
2019-01-29T02:55:00.416Z,81.23
2019-01-29T02:57:26.957Z,81.29
2019-01-29T02:59:53.468Z,81.41
2019-01-29T03:02:20.351Z,81.65
2019-01-29T03:04:46.829Z,81.98
2019-01-29T03:07:13.494Z,81.99
2019-01-29T03:09:40.092Z,82.01
2019-01-29T03:12:06.876Z,82.25
2019-01-29T03:14:33.700Z,82.09
2019-01-29T03:17:00.183Z,82.41
2019-01-29T03:19:26.712Z,82.48
2019-01-29T03:21:53.611Z,82.65
2019-01-29T03:24:20.095Z,82.80
2019-01-29T03:26:46.710Z,82.76
2019-01-29T03:29:13.314Z,83.12
2019-01-29T03:31:39.791Z,82.95
2019-01-29T03:34:06.441Z,83.19
2019-01-29T03:36:33.068Z,83.24
2019-01-29T03:38:59.912Z,83.68
2019-01-29T03:41:26.563Z,83.64
2019-01-29T03:43:53.184Z,83.72
2019-01-29T03:46:19.706Z,83.78
2019-01-29T03:48:46.484Z,83.89
2019-01-29T03:51:13.132Z,83.91
2019-01-29T03:53:39.635Z,83.99
2019-01-29T03:56:06.213Z,84.16
2019-01-29T03:58:32.712Z,84.48
2019-01-29T04:00:59.243Z,84.49
2019-01-29T04:03:25.721Z,84.66
2019-01-29T04:05:52.285Z,84.84
2019-01-29T04:08:18.873Z,84.82
2019-01-29T04:10:45.386Z,84.84
2019-01-29T04:13:11.853Z,85.05
2019-01-29T04:15:39.404Z,84.79
2019-01-29T04:18:05.967Z,84.81
2019-01-29T04:20:32.471Z,84.88
2019-01-29T04:22:58.957Z,85.19
2019-01-29T04:25:25.506Z,85.25
2019-01-29T04:27:52.434Z,85.19
2019-01-29T04:30:20.129Z,85.18
2019-01-29T04:32:46.631Z,85.43
2019-01-29T04:35:13.837Z,85.58
2019-01-29T04:37:40.637Z,85.83
2019-01-29T04:40:09.247Z,86.07
2019-01-29T04:42:35.707Z,86.27
2019-01-29T04:45:02.882Z,86.28
2019-01-29T04:47:29.399Z,86.31
2019-01-29T04:49:55.967Z,86.35
2019-01-29T04:52:26.522Z,86.26
2019-01-29T04:54:53.068Z,86.23
2019-01-29T04:57:19.560Z,86.29
2019-01-29T04:59:46.072Z,86.53
2019-01-29T05:02:12.520Z,86.37
2019-01-29T05:04:39.356Z,86.08
2019-01-29T05:07:05.830Z,85.68
2019-01-29T05:09:32.325Z,85.39
2019-01-29T05:11:58.781Z,84.93
2019-01-29T05:14:25.235Z,84.71
2019-01-29T05:16:51.707Z,84.29
2019-01-29T05:19:18.303Z,83.87
2019-01-29T05:21:44.794Z,83.62
2019-01-29T05:24:11.273Z,83.63
2019-01-29T05:26:37.732Z,83.33
2019-01-29T05:29:04.175Z,83.10
2019-01-29T05:31:30.705Z,83.23
2019-01-29T05:33:57.295Z,83.19
2019-01-29T05:36:23.870Z,83.08
2019-01-29T05:38:50.718Z,83.23
2019-01-29T05:41:17.276Z,83.55
2019-01-29T05:43:43.777Z,83.79
2019-01-29T05:46:10.309Z,83.94
2019-01-29T05:48:36.784Z,83.96
2019-01-29T05:51:03.368Z,84.21
2019-01-29T05:53:29.852Z,84.29
2019-01-29T05:55:56.337Z,84.59
2019-01-29T05:58:22.798Z,84.38
2019-01-29T06:00:49.333Z,84.62
2019-01-29T06:03:15.836Z,84.73
2019-01-29T06:05:42.316Z,84.83
2019-01-29T06:08:08.801Z,84.88
2019-01-29T06:10:35.287Z,85.06
2019-01-29T06:13:01.842Z,84.99
2019-01-29T06:15:28.432Z,84.76
2019-01-29T06:17:54.945Z,84.79
2019-01-29T06:20:22.821Z,85.13
2019-01-29T06:22:49.498Z,85.05
2019-01-29T06:25:16.388Z,85.14
2019-01-29T06:27:43.092Z,85.11
2019-01-29T06:30:10.716Z,85.12
2019-01-29T06:32:37.218Z,85.30
2019-01-29T06:35:04.579Z,85.49
2019-01-29T06:37:35.119Z,85.66
2019-01-29T06:40:01.795Z,85.75
2019-01-29T06:42:28.513Z,85.74
2019-01-29T06:44:55.036Z,85.84
2019-01-29T06:47:21.867Z,85.80
2019-01-29T06:49:48.357Z,86.11
2019-01-29T06:52:14.868Z,86.29
2019-01-29T06:54:41.423Z,86.48
2019-01-29T06:57:08.025Z,86.67
2019-01-29T06:59:34.468Z,86.81
2019-01-29T07:02:01.307Z,86.88
2019-01-29T07:04:27.828Z,86.81
2019-01-29T07:06:54.437Z,86.77
2019-01-29T07:09:20.891Z,86.89
2019-01-29T07:11:59.145Z,87.04
2019-01-29T07:14:25.828Z,86.95
2019-01-29T07:17:05.333Z,86.64
2019-01-29T07:19:38.006Z,86.56
2019-01-29T07:22:04.683Z,86.66
2019-01-29T07:24:31.195Z,86.46
2019-01-29T07:26:57.659Z,86.18
2019-01-29T07:29:25.209Z,85.91
2019-01-29T07:31:52.886Z,85.55
2019-01-29T07:34:19.365Z,85.50
2019-01-29T07:36:45.850Z,85.49
2019-01-29T07:39:12.492Z,85.41
2019-01-29T07:41:38.987Z,85.19
2019-01-29T07:44:05.889Z,85.04
2019-01-29T07:46:32.635Z,85.07
2019-01-29T07:48:59.216Z,85.04
2019-01-29T07:51:25.814Z,84.80
2019-01-29T07:53:52.418Z,84.48
2019-01-29T07:56:19.045Z,84.40
2019-01-29T07:58:45.790Z,84.33
2019-01-29T08:01:12.456Z,84.26
2019-01-29T08:03:38.946Z,83.53
2019-01-29T08:06:05.456Z,83.39
2019-01-29T08:08:31.952Z,83.26
2019-01-29T08:10:58.523Z,83.03
2019-01-29T08:13:25.101Z,82.56
2019-01-29T08:15:53.810Z,82.34
2019-01-29T08:18:20.714Z,82.12
2019-01-29T08:20:47.358Z,81.52
2019-01-29T08:23:13.873Z,81.44
2019-01-29T08:25:47.683Z,80.77
2019-01-29T08:28:08.845Z,79.89
2019-01-29T08:30:35.541Z,79.30
2019-01-29T08:33:02.068Z,78.62
2019-01-29T08:35:28.656Z,78.20
2019-01-29T08:37:55.221Z,78.41
2019-01-29T08:40:23.183Z,78.23
2019-01-29T08:42:49.715Z,77.91
2019-01-29T08:45:16.328Z,78.43
2019-01-29T08:47:43.279Z,78.44
2019-01-29T08:50:13.057Z,78.77
2019-01-29T08:52:39.620Z,78.88
2019-01-29T08:55:10.713Z,78.99
2019-01-29T08:57:35.159Z,78.66
2019-01-29T09:00:03.784Z,78.71
2019-01-29T09:02:30.304Z,78.27
2019-01-29T09:04:56.952Z,78.50
2019-01-29T09:07:23.499Z,78.41
2019-01-29T09:09:50.180Z,78.17
2019-01-29T09:12:16.773Z,78.02
2019-01-29T09:14:43.291Z,77.92
2019-01-29T09:17:09.800Z,77.40
2019-01-29T09:19:36.354Z,77.34
2019-01-29T09:22:02.961Z,77.08
2019-01-29T09:24:29.554Z,76.57
2019-01-29T09:26:56.383Z,75.99
2019-01-29T09:29:22.855Z,75.87
2019-01-29T09:31:49.395Z,75.42
2019-01-29T09:34:16.948Z,74.92
2019-01-29T09:36:43.492Z,74.68
2019-01-29T09:39:10.345Z,74.88
2019-01-29T09:41:37.013Z,75.23
2019-01-29T09:44:03.701Z,74.68
2019-01-29T09:46:30.413Z,74.52
2019-01-29T09:48:57.698Z,74.00
2019-01-29T09:51:24.236Z,73.67
2019-01-29T09:53:51.025Z,73.49
2019-01-29T09:56:17.755Z,73.25
2019-01-29T09:58:44.319Z,73.60
2019-01-29T10:01:10.870Z,72.93
2019-01-29T10:03:41.903Z,73.19
2019-01-29T10:06:09.592Z,72.95
2019-01-29T10:08:36.335Z,73.28
2019-01-29T10:11:02.908Z,73.40
2019-01-29T10:13:29.770Z,73.00
2019-01-29T10:15:56.459Z,73.37
2019-01-29T10:18:22.990Z,73.21
2019-01-29T10:20:49.565Z,72.49
2019-01-29T10:23:17.444Z,72.35
2019-01-29T10:25:44.023Z,72.66
2019-01-29T10:28:10.619Z,72.43
2019-01-29T10:30:37.317Z,72.17
2019-01-29T10:33:03.777Z,71.76
2019-01-29T10:35:30.442Z,72.02
2019-01-29T10:37:57.049Z,71.88
2019-01-29T10:40:24.302Z,72.18
2019-01-29T10:42:51.397Z,70.88
2019-01-29T10:45:18.643Z,71.74
2019-01-29T10:47:45.192Z,71.89
2019-01-29T10:50:15.802Z,72.36
2019-01-29T10:52:42.900Z,72.02
2019-01-29T10:55:09.593Z,72.39
2019-01-29T10:57:37.134Z,72.29
2019-01-29T11:00:15.054Z,72.37
2019-01-29T11:02:49.829Z,72.55
2019-01-29T11:05:24.615Z,72.85
2019-01-29T11:07:51.591Z,73.00
2019-01-29T11:10:18.761Z,73.42
2019-01-29T11:12:45.358Z,73.23
2019-01-29T11:15:15.039Z,73.84
2019-01-29T11:17:41.552Z,74.13
2019-01-29T11:20:10.845Z,73.61
2019-01-29T11:22:37.581Z,74.21
2019-01-29T11:25:06.942Z,74.42
2019-01-29T11:27:33.608Z,73.87
2019-01-29T11:30:00.266Z,73.78
2019-01-29T11:32:27.056Z,74.14
2019-01-29T11:34:53.545Z,73.87
2019-01-29T11:37:20.358Z,72.88
2019-01-29T11:39:46.803Z,73.13
2019-01-29T11:42:13.530Z,73.21
2019-01-29T11:44:40.286Z,73.58
2019-01-29T11:47:07.121Z,72.07
2019-01-29T11:49:33.619Z,70.16
2019-01-29T11:52:00.241Z,70.33
2019-01-29T11:54:26.764Z,69.95
2019-01-29T11:56:53.735Z,69.79
2019-01-29T11:59:20.214Z,70.07
2019-01-29T12:01:46.656Z,70.05
2019-01-29T12:04:13.272Z,70.95
2019-01-29T12:06:40.163Z,70.45
2019-01-29T12:09:12.686Z,70.59
2019-01-29T12:11:39.674Z,70.26
2019-01-29T12:14:06.511Z,68.94
2019-01-29T12:16:34.235Z,68.59
2019-01-29T12:19:00.839Z,68.61
2019-01-29T12:21:27.606Z,68.96
2019-01-29T12:23:56.128Z,69.10
2019-01-29T12:26:23.368Z,68.44
2019-01-29T12:28:49.875Z,67.92
2019-01-29T12:31:16.473Z,67.91
2019-01-29T12:33:42.990Z,68.07
2019-01-29T12:36:09.517Z,68.88
2019-01-29T12:38:36.145Z,68.80
2019-01-29T12:41:04.056Z,68.12
2019-01-29T12:43:30.698Z,68.29
2019-01-29T12:45:57.252Z,67.92
2019-01-29T12:48:24.000Z,67.57
2019-01-29T12:50:57.477Z,66.17
2019-01-29T12:53:29.236Z,66.50
2019-01-29T12:55:55.774Z,66.88
2019-01-29T12:58:22.289Z,66.65
2019-01-29T13:00:56.746Z,66.30
2019-01-29T13:03:23.352Z,66.55
2019-01-29T13:05:50.402Z,66.82
2019-01-29T13:08:17.295Z,66.88
2019-01-29T13:10:43.766Z,67.10
2019-01-29T13:13:13.868Z,67.76
2019-01-29T13:15:40.469Z,67.83
2019-01-29T13:18:08.161Z,67.76
2019-01-29T13:20:34.811Z,68.92
2019-01-29T13:23:01.541Z,68.89
2019-01-29T13:25:28.031Z,68.83
2019-01-29T13:27:54.726Z,68.84
2019-01-29T13:30:32.287Z,69.16
2019-01-29T13:33:06.452Z,69.75
2019-01-29T13:35:47.517Z,69.73
2019-01-29T13:38:22.500Z,68.41
2019-01-29T13:40:49.149Z,69.06
2019-01-29T13:43:15.856Z,67.74
2019-01-29T13:45:42.583Z,67.74
2019-01-29T13:48:09.161Z,68.13
2019-01-29T13:51:10.117Z,67.81
2019-01-29T13:53:37.183Z,68.49
2019-01-29T13:56:03.914Z,68.33
2019-01-29T13:58:30.880Z,67.32
2019-01-29T14:00:57.527Z,67.27
2019-01-29T14:03:24.268Z,67.12
2019-01-29T14:05:52.872Z,67.12
2019-01-29T14:08:19.405Z,67.14
2019-01-29T14:10:46.162Z,68.02
2019-01-29T14:13:15.611Z,68.48
2019-01-29T14:15:55.890Z,68.69
2019-01-29T14:18:24.746Z,69.21
2019-01-29T14:20:51.644Z,69.28
2019-01-29T14:23:18.283Z,69.43
2019-01-29T14:25:45.988Z,69.40
2019-01-29T14:28:22.623Z,69.52
2019-01-29T14:30:49.375Z,69.87
2019-01-29T14:33:16.622Z,69.87
2019-01-29T14:35:43.186Z,69.69
2019-01-29T14:38:55.019Z,69.76
2019-01-29T14:41:21.978Z,70.05
2019-01-29T14:43:54.438Z,70.28
2019-01-29T14:46:21.621Z,70.57
2019-01-29T14:48:48.842Z,70.64
2019-01-29T14:51:16.855Z,70.82
2019-01-29T14:53:43.348Z,70.79
2019-01-29T14:56:16.192Z,71.37
2019-01-29T14:58:51.896Z,71.07
2019-01-29T15:01:27.929Z,71.52
2019-01-29T15:04:02.771Z,71.90
2019-01-29T15:06:35.732Z,72.48
2019-01-29T15:09:08.197Z,72.93
2019-01-29T15:11:42.339Z,73.22
2019-01-29T15:14:12.938Z,73.63
2019-01-29T15:17:05.717Z,73.79
2019-01-29T15:19:40.266Z,74.00
2019-01-29T15:22:07.949Z,74.10
2019-01-29T15:24:36.237Z,74.03
2019-01-29T15:27:06.343Z,74.48
2019-01-29T15:29:33.817Z,74.20
2019-01-29T15:32:01.056Z,74.37
2019-01-29T15:34:30.530Z,74.92
2019-01-29T15:36:58.377Z,75.12
2019-01-29T15:39:30.149Z,75.22
2019-01-29T15:42:04.584Z,75.65
2019-01-29T15:44:33.518Z,75.86
2019-01-29T15:47:00.145Z,76.38
2019-01-29T15:49:28.642Z,76.79
2019-01-29T15:51:58.751Z,77.29
2019-01-29T15:54:25.556Z,77.65
2019-01-29T15:56:54.787Z,78.30
2019-01-29T15:59:21.574Z,78.56
2019-01-29T16:01:48.301Z,78.88
2019-01-29T16:04:15.217Z,79.23
2019-01-29T16:06:41.862Z,79.61
2019-01-29T16:09:08.729Z,79.81
2019-01-29T16:11:35.249Z,80.04
2019-01-29T16:14:01.714Z,80.08
2019-01-29T16:16:28.234Z,80.30
2019-01-29T16:18:58.004Z,80.60
2019-01-29T16:21:27.660Z,80.72
2019-01-29T16:23:54.479Z,80.92
2019-01-29T16:26:21.176Z,81.07
2019-01-29T16:28:47.721Z,81.27
2019-01-29T16:31:14.364Z,81.54
2019-01-29T16:33:40.860Z,81.68
2019-01-29T16:36:07.617Z,81.79
2019-01-29T16:38:34.093Z,82.11
2019-01-29T16:41:02.729Z,82.42
2019-01-29T16:43:29.231Z,82.66
2019-01-29T16:45:57.625Z,82.77
2019-01-29T16:48:24.150Z,82.72
2019-01-29T16:50:50.684Z,82.60
2019-01-29T16:53:17.434Z,82.72
2019-01-29T16:55:44.320Z,82.53
2019-01-29T16:58:10.857Z,82.62
2019-01-29T17:00:38.045Z,82.55
2019-01-29T17:03:07.706Z,82.64
2019-01-29T17:05:36.983Z,82.82
2019-01-29T17:08:06.011Z,82.60
2019-01-29T17:10:36.386Z,82.28
2019-01-29T17:13:06.745Z,82.04
2019-01-29T17:15:35.850Z,81.75
2019-01-29T17:18:05.867Z,82.03
2019-01-29T17:20:37.137Z,82.08
2019-01-29T17:23:06.723Z,82.36
2019-01-29T17:25:35.696Z,82.66
2019-01-29T17:28:04.779Z,82.83
2019-01-29T17:30:41.757Z,83.15
2019-01-29T17:33:09.501Z,83.31
2019-01-29T17:35:37.600Z,83.26
2019-01-29T17:38:07.586Z,83.54
2019-01-29T17:40:36.976Z,83.79
2019-01-29T17:43:07.128Z,83.99
2019-01-29T17:45:39.042Z,83.99
2019-01-29T17:48:06.106Z,84.23
2019-01-29T17:50:37.328Z,84.35
2019-01-29T17:53:05.258Z,84.57
2019-01-29T17:55:36.186Z,84.56
2019-01-29T17:58:05.943Z,84.54
2019-01-29T18:00:35.121Z,84.34
2019-01-29T18:03:05.056Z,84.53
2019-01-29T18:05:35.063Z,84.87
2019-01-29T18:08:01.703Z,85.03
2019-01-29T18:10:28.736Z,85.23
2019-01-29T18:12:58.294Z,85.22
2019-01-29T18:15:26.111Z,85.06
2019-01-29T18:17:54.943Z,85.01
2019-01-29T18:20:21.653Z,85.10
2019-01-29T18:22:48.254Z,84.82
2019-01-29T18:25:18.102Z,84.31
2019-01-29T18:28:00.648Z,84.18
2019-01-29T18:30:21.536Z,84.14
2019-01-29T18:32:50.113Z,84.27
2019-01-29T18:35:17.084Z,84.58
2019-01-29T18:37:46.777Z,84.44
2019-01-29T18:40:35.890Z,83.81
2019-01-29T18:43:05.671Z,83.32
2019-01-29T18:45:43.866Z,82.77
2019-01-29T18:48:19.047Z,82.49
2019-01-29T18:50:45.601Z,81.99
2019-01-29T18:53:15.043Z,81.76
2019-01-29T18:55:44.746Z,81.65
2019-01-29T18:58:17.426Z,81.54
2019-01-29T19:00:54.291Z,81.72
2019-01-29T19:03:26.038Z,81.68
2019-01-29T19:05:53.178Z,81.74
2019-01-29T19:08:20.053Z,81.74
2019-01-29T19:10:46.812Z,81.56
2019-01-29T19:13:15.806Z,81.62
2019-01-29T19:16:00.769Z,81.53
2019-01-29T19:18:45.377Z,81.54
2019-01-29T19:21:15.074Z,82.31
2019-01-29T19:23:41.824Z,82.49
2019-01-29T19:26:08.428Z,81.98
2019-01-29T19:28:35.422Z,81.91
2019-01-29T19:31:04.753Z,81.75
2019-01-29T19:33:30.795Z,81.78
2019-01-29T19:35:57.559Z,81.94
2019-01-29T19:38:24.193Z,81.81
2019-01-29T19:40:50.774Z,81.58
2019-01-29T19:43:17.409Z,81.41
2019-01-29T19:45:44.118Z,81.26
2019-01-29T19:48:10.996Z,80.98
2019-01-29T19:50:37.694Z,80.98
2019-01-29T19:53:04.204Z,80.91
2019-01-29T19:55:30.665Z,81.00
2019-01-29T19:58:08.356Z,81.12
2019-01-29T20:00:34.736Z,80.98
2019-01-29T20:03:01.468Z,80.71
2019-01-29T20:05:28.031Z,80.98
2019-01-29T20:07:54.630Z,81.48
2019-01-29T20:10:21.449Z,81.45
2019-01-29T20:12:48.139Z,81.74
2019-01-29T20:15:15.681Z,81.90
2019-01-29T20:17:42.382Z,81.58
2019-01-29T20:20:12.208Z,81.72
2019-01-29T20:22:39.859Z,81.62
2019-01-29T20:25:06.890Z,81.63
2019-01-29T20:27:33.427Z,81.52
2019-01-29T20:29:59.976Z,81.30
2019-01-29T20:32:26.578Z,81.48
2019-01-29T20:34:53.326Z,81.56
2019-01-29T20:37:19.811Z,81.48
2019-01-29T20:39:46.364Z,82.07
2019-01-29T20:42:12.886Z,82.11
2019-01-29T20:44:39.774Z,82.11
2019-01-29T20:47:06.531Z,82.13
2019-01-29T20:49:33.058Z,81.98
2019-01-29T20:51:59.812Z,82.08
2019-01-29T20:54:26.338Z,82.05
2019-01-29T20:56:52.806Z,82.35
2019-01-29T20:59:19.459Z,82.20
2019-01-29T21:01:48.864Z,82.31
2019-01-29T21:04:16.620Z,82.60
2019-01-29T21:06:43.448Z,82.81
2019-01-29T21:09:09.963Z,82.99
2019-01-29T21:11:36.589Z,83.11
2019-01-29T21:14:03.373Z,83.28
2019-01-29T21:16:29.958Z,83.61
2019-01-29T21:18:56.807Z,83.83
2019-01-29T21:21:23.699Z,84.39
2019-01-29T21:23:50.483Z,84.58
2019-01-29T21:26:17.918Z,84.69
2019-01-29T21:28:44.473Z,84.75
2019-01-29T21:31:11.751Z,84.85
2019-01-29T21:33:38.460Z,85.21
2019-01-29T21:36:05.157Z,85.32
2019-01-29T21:38:32.046Z,85.35
2019-01-29T21:41:02.192Z,85.54
2019-01-29T21:43:29.425Z,85.63
2019-01-29T21:45:56.255Z,85.81
2019-01-29T21:48:22.898Z,85.81
2019-01-29T21:50:49.653Z,86.06
2019-01-29T21:53:17.313Z,86.33
2019-01-29T21:55:44.510Z,86.75
2019-01-29T21:58:11.078Z,87.07
2019-01-29T22:00:43.593Z,87.32
2019-01-29T22:03:11.271Z,87.65
2019-01-29T22:05:37.924Z,87.93
2019-01-29T22:08:06.677Z,88.51
2019-01-29T22:10:41.854Z,88.59
2019-01-29T22:13:09.649Z,88.27
2019-01-29T22:15:36.339Z,88.36
2019-01-29T22:18:05.578Z,88.48
2019-01-29T22:20:35.046Z,88.29
2019-01-29T22:23:03.914Z,88.42
2019-01-29T22:25:30.695Z,88.65
2019-01-29T22:27:57.964Z,88.89
2019-01-29T22:30:27.106Z,89.02
2019-01-29T22:32:55.588Z,89.10
2019-01-29T22:35:25.290Z,89.16
2019-01-29T22:37:53.947Z,89.19
2019-01-29T22:40:23.826Z,89.09
2019-01-29T22:42:50.849Z,88.89
2019-01-29T22:45:17.542Z,88.74
2019-01-29T22:47:53.749Z,88.69
2019-01-29T22:50:28.180Z,88.67
2019-01-29T22:52:55.088Z,88.73
2019-01-29T22:55:25.305Z,88.90
2019-01-29T22:57:55.051Z,89.01
2019-01-29T23:00:33.796Z,88.66
2019-01-29T23:03:00.308Z,88.76
2019-01-29T23:05:26.912Z,88.60
2019-01-29T23:07:53.516Z,88.70
2019-01-29T23:10:20.406Z,88.57
2019-01-29T23:12:47.354Z,88.53
2019-01-29T23:15:15.291Z,88.47
2019-01-29T23:17:41.878Z,88.44
2019-01-29T23:20:09.461Z,88.45
2019-01-29T23:22:35.971Z,88.58
2019-01-29T23:25:07.026Z,88.74
2019-01-29T23:27:33.555Z,88.72
2019-01-29T23:30:00.197Z,88.87
2019-01-29T23:32:26.796Z,89.11
2019-01-29T23:34:53.370Z,89.09
2019-01-29T23:37:19.890Z,89.05
2019-01-29T23:39:53.250Z,89.09
2019-01-29T23:42:19.728Z,89.18
2019-01-29T23:44:46.574Z,89.09
2019-01-29T23:47:13.333Z,89.24
2019-01-29T23:49:39.864Z,89.24
2019-01-29T23:52:06.499Z,89.41
2019-01-29T23:54:33.077Z,89.51
2019-01-29T23:56:59.605Z,89.66
2019-01-29T23:59:26.170Z,89.58
